Flight Briefing for CPX305

Departure Arrival
Seattle-Tacoma International Airport (KSEA)
Click to view FAA NOTAMS
Chicago/Rockford International Airport (KRFD)
Click to view FAA NOTAMS
Departure Time Arrival Time
N/A N/A
Aircraft Distance
B767-300BDSF 1662nm
Departure METAR Arrival METAR
KSEA 152153Z 20011KT 10SM SCT020 BKN035 BKN120 BKN200 08/03 A2965 RMK AO2 SLP047 T00830028 KRFD 152154Z 32009KT 10SM BKN250 M09/M16 A2999 RMK AO2 SLP172 T10941156
Suggested Route
NORMY J12 EPH HLN DPR J16 FSD DBQ


View recent IFR Routes data
Notes



Charts and Procedures

Charts for KSEA
No chart available
Charts for KRFD
No chart available

Ventusky Weather